createdAt,value
2022-08-09T00:04:37.517Z,20.70
2022-08-09T00:07:07.675Z,20.60
2022-08-09T00:09:38.486Z,20.80
2022-08-09T00:12:07.034Z,20.60
2022-08-09T00:14:38.046Z,20.50
2022-08-09T00:17:06.372Z,20.50
2022-08-09T00:19:33.949Z,20.50
2022-08-09T00:25:10.033Z,20.10
2022-08-09T00:27:42.975Z,19.80
2022-08-09T00:30:25.512Z,19.80
2022-08-09T00:32:53.698Z,19.80
2022-08-09T00:35:23.676Z,19.80
2022-08-09T00:37:51.213Z,19.80
2022-08-09T00:40:20.249Z,19.80
2022-08-09T00:48:11.084Z,19.80
2022-08-09T00:50:43.160Z,19.70
2022-08-09T00:53:11.867Z,19.60
2022-08-09T00:56:03.941Z,19.60
2022-08-09T00:58:27.937Z,19.50
2022-08-09T01:08:59.825Z,19.40
2022-08-09T01:11:40.361Z,19.50
2022-08-09T01:14:28.864Z,19.50
2022-08-09T01:17:09.031Z,19.60
2022-08-09T01:20:01.677Z,19.40
2022-08-09T01:22:57.232Z,19.50
2022-08-09T01:28:15.177Z,19.50
2022-08-09T01:30:52.647Z,19.50
2022-08-09T01:33:24.294Z,19.40
2022-08-09T01:35:59.105Z,19.50
2022-08-09T01:38:30.652Z,19.30
2022-08-09T01:41:04.998Z,19.20
2022-08-09T01:43:50.746Z,19.20
2022-08-09T01:51:26.161Z,19.10
2022-08-09T01:53:57.960Z,19.00
2022-08-09T01:56:27.212Z,19.00
2022-08-09T01:58:55.655Z,18.90
2022-08-09T02:01:34.753Z,18.90
2022-08-09T02:04:13.917Z,18.70
2022-08-09T02:07:02.710Z,18.70
2022-08-09T02:14:31.251Z,18.70
2022-08-09T02:17:15.042Z,18.70
2022-08-09T02:22:46.952Z,18.60
2022-08-09T02:25:21.243Z,18.60
2022-08-09T02:28:00.137Z,18.50
2022-08-09T02:30:37.531Z,18.40
2022-08-09T02:38:27.843Z,18.40
2022-08-09T02:41:03.510Z,18.30
2022-08-09T02:43:47.716Z,18.20
2022-08-09T02:46:21.692Z,18.20
2022-08-09T02:48:51.235Z,18.30
2022-08-09T02:51:20.475Z,18.30
2022-08-09T02:54:00.884Z,18.30
2022-08-09T02:59:26.547Z,18.20
2022-08-09T03:02:09.770Z,18.20
2022-08-09T03:04:46.711Z,18.20
2022-08-09T03:07:20.160Z,18.10
2022-08-09T03:09:56.225Z,18.00
2022-08-09T03:12:26.288Z,18.10
2022-08-09T03:14:56.563Z,17.90
2022-08-09T03:22:31.102Z,18.00
2022-08-09T03:25:26.124Z,17.80
2022-08-09T03:27:51.107Z,17.80
2022-08-09T03:30:29.482Z,17.80
2022-08-09T03:33:12.643Z,17.80
2022-08-09T03:36:12.490Z,17.70
2022-08-09T03:38:34.379Z,17.70
2022-08-09T03:46:04.684Z,17.50
2022-08-09T03:48:52.029Z,17.30
2022-08-09T03:51:44.442Z,17.20
2022-08-09T03:54:11.062Z,17.20
2022-08-09T03:56:41.140Z,16.60
2022-08-09T03:59:17.264Z,16.50
2022-08-09T04:01:59.257Z,16.60
2022-08-09T04:07:47.309Z,16.60
2022-08-09T04:10:20.546Z,16.50
2022-08-09T04:12:51.342Z,16.50
2022-08-09T04:15:40.496Z,16.60
2022-08-09T04:18:07.998Z,16.40
2022-08-09T04:20:35.188Z,16.40
2022-08-09T04:23:03.258Z,16.50
2022-08-09T04:25:37.835Z,16.40
2022-08-09T04:33:10.230Z,16.30
2022-08-09T04:35:39.481Z,16.30
2022-08-09T04:38:10.148Z,16.40
2022-08-09T04:40:56.034Z,16.40
2022-08-09T04:43:25.405Z,16.50
2022-08-09T04:45:53.035Z,16.70
2022-08-09T04:48:57.525Z,16.60
2022-08-09T04:54:08.796Z,16.60
2022-08-09T04:56:37.372Z,16.50
2022-08-09T04:59:12.970Z,16.60
2022-08-09T05:01:42.850Z,16.40
2022-08-09T05:04:10.841Z,16.50
2022-08-09T05:06:41.618Z,16.50
2022-08-09T05:09:12.600Z,16.70
2022-08-09T05:18:37.642Z,16.60
2022-08-09T05:20:04.384Z,16.70
2022-08-09T05:22:36.100Z,16.90
2022-08-09T05:25:19.188Z,17.10
2022-08-09T05:27:48.036Z,16.70
2022-08-09T05:30:17.526Z,16.70
2022-08-09T05:32:45.699Z,16.80
2022-08-09T05:40:28.040Z,16.90
2022-08-09T05:42:55.867Z,16.80
2022-08-09T05:45:24.825Z,16.80
2022-08-09T05:47:57.973Z,16.90
2022-08-09T05:50:50.696Z,16.80
2022-08-09T05:53:21.878Z,16.80
2022-08-09T05:56:01.690Z,17.00
2022-08-09T06:03:43.899Z,17.10
2022-08-09T06:06:21.768Z,17.20
2022-08-09T06:08:52.800Z,17.10
2022-08-09T06:11:20.490Z,17.20
2022-08-09T06:14:07.700Z,17.30
2022-08-09T06:16:35.303Z,17.30
2022-08-09T06:19:03.868Z,17.50
2022-08-09T06:26:43.639Z,17.70
2022-08-09T06:29:14.983Z,17.80
2022-08-09T06:32:18.399Z,17.80
2022-08-09T06:34:30.781Z,18.00
2022-08-09T06:36:59.742Z,17.90
2022-08-09T06:39:48.660Z,17.80
2022-08-09T06:42:17.220Z,18.10
2022-08-09T06:50:13.783Z,18.10
2022-08-09T06:52:45.526Z,18.30
2022-08-09T06:55:14.948Z,18.40
2022-08-09T06:58:01.228Z,18.70
2022-08-09T07:00:51.954Z,18.70
2022-08-09T07:03:16.960Z,18.60
2022-08-09T07:05:58.538Z,18.80
2022-08-09T07:13:30.968Z,19.00
2022-08-09T07:16:41.998Z,18.90
2022-08-09T07:18:59.679Z,19.00
2022-08-09T07:21:27.046Z,19.10
2022-08-09T07:23:58.509Z,19.10
2022-08-09T07:26:26.243Z,19.20
2022-08-09T07:29:08.289Z,19.30
2022-08-09T07:36:42.220Z,19.60
2022-08-09T07:39:20.454Z,19.50
2022-08-09T07:42:03.034Z,19.70
2022-08-09T07:44:50.924Z,20.00
2022-08-09T07:47:20.898Z,19.90
2022-08-09T07:50:05.270Z,20.00
2022-08-09T07:55:16.401Z,20.00
2022-08-09T07:57:47.673Z,20.40
2022-08-09T08:00:20.822Z,20.60
2022-08-09T08:03:04.613Z,20.60
2022-08-09T08:05:53.598Z,20.60
2022-08-09T08:09:01.779Z,20.80
2022-08-09T08:12:10.785Z,21.00
2022-08-09T08:19:02.968Z,21.90
2022-08-09T08:21:30.943Z,22.30
2022-08-09T08:24:01.229Z,22.80
2022-08-09T08:26:54.870Z,23.50
2022-08-09T08:29:27.935Z,23.50
2022-08-09T08:32:03.182Z,23.40
2022-08-09T08:34:34.386Z,23.30
2022-08-09T08:42:07.999Z,23.90
2022-08-09T08:44:37.537Z,24.30
2022-08-09T08:47:12.906Z,24.80
2022-08-09T08:49:47.024Z,25.40
2022-08-09T08:52:58.248Z,25.80
2022-08-09T08:55:06.386Z,26.30
2022-08-09T08:57:37.160Z,26.90
2022-08-09T09:07:36.938Z,27.70
2022-08-09T09:10:11.089Z,28.30
2022-08-09T09:12:38.881Z,28.80
2022-08-09T09:15:08.380Z,29.00
2022-08-09T09:17:48.393Z,29.20
2022-08-09T09:20:17.321Z,29.50
2022-08-09T09:22:53.819Z,29.70
2022-08-09T09:33:15.707Z,30.20
2022-08-09T09:35:53.097Z,30.50
2022-08-09T09:38:46.100Z,30.50
2022-08-09T09:41:33.153Z,30.80
2022-08-09T09:44:25.930Z,30.90
2022-08-09T09:47:04.938Z,31.10
2022-08-09T09:49:56.371Z,31.10
2022-08-09T09:58:00.773Z,31.70
2022-08-09T10:00:24.914Z,32.00
2022-08-09T10:02:54.251Z,32.30
2022-08-09T10:05:27.207Z,32.10
2022-08-09T10:08:27.411Z,31.90
2022-08-09T10:10:56.018Z,31.90
2022-08-09T10:13:43.229Z,31.90
2022-08-09T10:21:16.372Z,32.10
2022-08-09T10:23:45.038Z,32.70
2022-08-09T10:26:15.385Z,32.90
2022-08-09T10:28:49.061Z,33.20
2022-08-09T10:34:32.890Z,33.80
2022-08-09T10:37:04.598Z,33.50
2022-08-09T10:44:42.779Z,33.10
2022-08-09T10:48:20.426Z,32.50
2022-08-09T10:50:32.836Z,32.00
2022-08-09T10:53:10.646Z,32.20
2022-08-09T10:55:55.147Z,32.50
2022-08-09T10:58:34.905Z,32.40
2022-08-09T11:03:03.033Z,32.60
2022-08-09T11:09:19.571Z,32.30
2022-08-09T11:12:17.189Z,32.10
2022-08-09T11:14:55.940Z,32.70
2022-08-09T11:18:03.567Z,33.50
2022-08-09T11:20:49.681Z,34.10
2022-08-09T11:23:30.184Z,34.40
2022-08-09T11:28:56.171Z,34.50
2022-08-09T11:31:49.504Z,34.60
2022-08-09T11:34:31.549Z,34.30
2022-08-09T11:37:01.561Z,34.40
2022-08-09T11:39:38.042Z,34.70
2022-08-09T11:42:09.359Z,34.80
2022-08-09T11:44:49.224Z,34.80
2022-08-09T11:53:28.001Z,35.00
2022-08-09T11:55:52.495Z,35.40
2022-08-09T11:58:48.137Z,35.60
2022-08-09T12:02:01.186Z,35.00
2022-08-09T12:04:08.940Z,35.20
2022-08-09T12:06:55.630Z,35.30
2022-08-09T12:17:42.979Z,35.10
2022-08-09T12:20:16.825Z,35.00
2022-08-09T12:22:56.152Z,35.20
2022-08-09T12:25:36.355Z,34.70
2022-08-09T12:29:10.434Z,34.50
2022-08-09T12:31:01.308Z,34.80
2022-08-09T12:41:25.457Z,33.20
2022-08-09T12:44:04.853Z,32.60
2022-08-09T12:46:36.107Z,31.90
2022-08-09T12:49:07.117Z,32.00
2022-08-09T12:52:00.133Z,32.10
2022-08-09T12:54:23.987Z,32.60
2022-08-09T12:56:56.469Z,32.80
2022-08-09T13:07:28.464Z,32.80
2022-08-09T13:10:08.687Z,32.60
2022-08-09T13:13:10.825Z,32.50
2022-08-09T13:15:37.027Z,32.40
2022-08-09T13:18:09.674Z,31.70
2022-08-09T13:22:33.773Z,31.30
2022-08-09T13:24:17.051Z,31.40
2022-08-09T13:32:16.240Z,31.60
2022-08-09T13:34:49.886Z,32.00
2022-08-09T13:37:51.120Z,31.70
2022-08-09T13:41:52.043Z,31.70
2022-08-09T13:42:57.292Z,31.60
2022-08-09T13:45:32.281Z,31.60
2022-08-09T13:48:14.666Z,31.20
2022-08-09T13:55:41.168Z,30.40
2022-08-09T13:58:14.768Z,30.50
2022-08-09T14:00:50.505Z,30.40
2022-08-09T14:04:03.809Z,30.70
2022-08-09T14:06:11.948Z,31.00
2022-08-09T14:08:47.637Z,31.30
2022-08-09T14:11:16.536Z,31.50
2022-08-09T14:18:51.696Z,31.20
2022-08-09T14:21:21.071Z,31.30
2022-08-09T14:23:56.706Z,31.20
2022-08-09T14:26:30.577Z,31.40
2022-08-09T14:29:02.877Z,30.70
2022-08-09T14:31:36.091Z,30.40
2022-08-09T14:41:40.327Z,30.00
2022-08-09T14:44:11.593Z,30.10
2022-08-09T14:47:01.451Z,29.90
2022-08-09T14:49:26.118Z,30.00
2022-08-09T14:52:55.277Z,30.30
2022-08-09T14:55:22.817Z,30.50
2022-08-09T14:57:51.543Z,30.60
2022-08-09T15:05:23.457Z,30.60
2022-08-09T15:07:54.744Z,30.50
2022-08-09T15:10:25.353Z,30.60
2022-08-09T15:12:53.278Z,30.50
2022-08-09T15:15:21.958Z,30.70
2022-08-09T15:17:52.545Z,30.80
2022-08-09T15:21:58.696Z,30.80
2022-08-09T15:31:10.124Z,29.70
2022-08-09T15:34:19.545Z,29.20
2022-08-09T15:36:30.724Z,29.10
2022-08-09T15:39:00.051Z,28.90
2022-08-09T15:41:31.224Z,28.80
2022-08-09T15:44:00.427Z,28.90
2022-08-09T15:46:33.249Z,28.60
2022-08-09T15:56:29.065Z,28.90
2022-08-09T15:58:58.303Z,29.00
2022-08-09T16:01:25.579Z,28.90
2022-08-09T16:03:53.496Z,28.80
2022-08-09T16:06:34.816Z,28.90
2022-08-09T16:09:05.175Z,29.00
2022-08-09T16:11:34.248Z,29.10
2022-08-09T16:22:00.391Z,29.10
2022-08-09T16:24:32.936Z,29.10
2022-08-09T16:27:01.409Z,28.90
2022-08-09T16:29:36.746Z,28.80
2022-08-09T16:32:17.892Z,28.90
2022-08-09T16:34:58.322Z,29.10
2022-08-09T16:37:53.588Z,29.00
2022-08-09T16:42:56.496Z,29.00
2022-08-09T16:45:23.553Z,29.20
2022-08-09T16:48:40.827Z,29.10
2022-08-09T16:50:58.789Z,29.10
2022-08-09T16:53:32.594Z,29.00
2022-08-09T16:56:07.533Z,28.90
2022-08-09T16:58:42.736Z,28.90
2022-08-09T17:06:31.615Z,28.90
2022-08-09T17:09:43.893Z,28.80
2022-08-09T17:11:52.530Z,28.60
2022-08-09T17:14:27.611Z,28.70
2022-08-09T17:16:59.931Z,28.60
2022-08-09T17:19:46.554Z,28.50
2022-08-09T17:22:16.026Z,28.50
2022-08-09T17:28:19.418Z,28.50
2022-08-09T17:30:48.132Z,28.20
2022-08-09T17:33:22.274Z,28.40
2022-08-09T17:35:50.489Z,28.40
2022-08-09T17:38:32.183Z,28.20
2022-08-09T17:41:04.969Z,28.20
2022-08-09T17:43:37.125Z,28.20
2022-08-09T17:51:18.399Z,28.10
2022-08-09T17:53:52.115Z,28.00
2022-08-09T17:56:26.731Z,27.90
2022-08-09T17:58:57.176Z,27.80
2022-08-09T18:01:24.894Z,27.80
2022-08-09T18:03:54.377Z,27.80
2022-08-09T18:06:31.727Z,27.70
2022-08-09T18:16:29.091Z,27.90
2022-08-09T18:19:03.520Z,27.60
2022-08-09T18:21:41.183Z,27.50
2022-08-09T18:24:14.521Z,27.50
2022-08-09T18:26:48.047Z,27.20
2022-08-09T18:30:40.711Z,27.30
2022-08-09T18:32:08.306Z,27.50
2022-08-09T18:37:47.624Z,27.10
2022-08-09T18:40:27.033Z,27.10
2022-08-09T18:42:57.531Z,26.90
2022-08-09T18:46:47.501Z,26.70
2022-08-09T18:48:12.588Z,26.50
2022-08-09T18:50:46.016Z,26.50
2022-08-09T18:53:19.649Z,26.60
2022-08-09T19:00:59.533Z,26.40
2022-08-09T19:03:29.326Z,26.30
2022-08-09T19:06:18.738Z,26.30
2022-08-09T19:08:55.294Z,26.20
2022-08-09T19:11:37.726Z,26.20
2022-08-09T19:14:08.216Z,26.30
2022-08-09T19:16:38.069Z,26.00
2022-08-09T19:24:36.260Z,26.00
2022-08-09T19:27:08.816Z,25.60
2022-08-09T19:30:22.281Z,25.50
2022-08-09T19:32:29.542Z,25.70
2022-08-09T19:35:01.050Z,25.50
2022-08-09T19:37:41.201Z,25.50
2022-08-09T19:40:22.227Z,25.40
2022-08-09T19:47:57.259Z,25.10
2022-08-09T19:50:50.877Z,25.00
2022-08-09T19:53:14.889Z,25.00
2022-08-09T19:56:03.405Z,24.90
2022-08-09T19:58:37.267Z,24.80
2022-08-09T20:01:08.421Z,24.90
2022-08-09T20:04:10.485Z,24.80
2022-08-09T20:10:40.619Z,24.80
2022-08-09T20:13:15.497Z,24.70
2022-08-09T20:16:33.263Z,24.80
2022-08-09T20:19:03.624Z,24.80
2022-08-09T20:21:54.709Z,24.90
2022-08-09T20:24:33.678Z,24.70
2022-08-09T20:29:49.587Z,24.60
2022-08-09T20:32:30.923Z,24.60
2022-08-09T20:35:09.377Z,24.50
2022-08-09T20:38:21.087Z,24.40
2022-08-09T20:40:30.728Z,24.50
2022-08-09T20:43:18.747Z,24.40
2022-08-09T20:53:39.080Z,24.40
2022-08-09T20:56:17.331Z,24.30
2022-08-09T20:58:49.475Z,24.30
2022-08-09T21:01:35.245Z,24.30
2022-08-09T21:05:48.179Z,24.30
2022-08-09T21:06:54.470Z,24.30
2022-08-09T21:09:32.618Z,24.20
2022-08-09T21:20:19.564Z,24.10
2022-08-09T21:22:38.615Z,24.00
2022-08-09T21:25:26.209Z,24.00
2022-08-09T21:28:07.401Z,23.80
2022-08-09T21:30:37.032Z,23.80
2022-08-09T21:33:07.702Z,23.80
2022-08-09T21:35:39.493Z,23.80
2022-08-09T21:40:57.336Z,23.80
2022-08-09T21:43:56.456Z,23.70
2022-08-09T21:46:13.812Z,23.80
2022-08-09T21:48:42.769Z,23.80
2022-08-09T21:51:24.570Z,23.80
2022-08-09T21:54:03.939Z,23.80
2022-08-09T21:56:43.191Z,23.60
2022-08-09T22:04:54.998Z,23.40
2022-08-09T22:07:12.231Z,23.50
2022-08-09T22:09:43.561Z,23.30
2022-08-09T22:12:18.488Z,23.40
2022-08-09T22:14:46.611Z,23.40
2022-08-09T22:17:13.819Z,23.30
2022-08-09T22:19:58.077Z,23.20
2022-08-09T22:27:32.541Z,23.10
2022-08-09T22:30:04.859Z,23.00
2022-08-09T22:32:32.836Z,23.20
2022-08-09T22:35:02.479Z,23.20
2022-08-09T22:37:40.079Z,23.10
2022-08-09T22:40:10.330Z,23.10
2022-08-09T22:42:45.896Z,23.00
2022-08-09T22:50:15.030Z,23.00
2022-08-09T22:52:42.046Z,22.90
2022-08-09T22:55:21.939Z,22.80
2022-08-09T22:57:59.887Z,22.80
2022-08-09T23:00:29.493Z,22.70
2022-08-09T23:02:57.115Z,22.70
2022-08-09T23:05:26.717Z,22.70
2022-08-09T23:10:33.366Z,22.60
2022-08-09T23:13:00.757Z,22.50
2022-08-09T23:15:28.687Z,22.50
2022-08-09T23:17:56.468Z,22.50
2022-08-09T23:20:25.568Z,22.50
2022-08-09T23:22:52.838Z,22.50
2022-08-09T23:25:20.217Z,22.30
2022-08-09T23:30:28.566Z,22.40
2022-08-09T23:32:56.619Z,22.40
2022-08-09T23:35:24.358Z,22.30
2022-08-09T23:37:51.730Z,22.30
2022-08-09T23:40:18.999Z,22.30
2022-08-09T23:42:45.893Z,22.20
2022-08-09T23:45:36.474Z,22.30
2022-08-09T23:55:31.990Z,22.30
2022-08-09T23:58:07.279Z,22.10
